Time;durP1;ratioP1;P1;durP2;ratioP2;P2;SDS_P1;SDS_P2;PMS_P1;PMS_P2;Temp;Humidity;BMP_temperature;BMP_pressure;BME280_temperature;BME280_humidity;BME280_pressure;Samples;Min_cycle;Max_cycle;Signal;HPM_P1;HPM_P2
2022/02/08 00:00:29;;;;;;;6.90;3.50;;;0.20;99.90;;;;;;6281799;22;20140;-82
2022/02/08 00:02:56;;;;;;;8.80;4.20;;;0.10;99.90;;;;;;6255033;22;20153;-82
2022/02/08 00:05:24;;;;;;;8.80;3.23;;;0.00;99.90;;;;;;6281677;22;20176;-82
2022/02/08 00:07:53;;;;;;;7.43;3.67;;;-0.10;99.90;;;;;;6254583;22;20191;-82
2022/02/08 00:10:19;;;;;;;8.90;3.77;;;-0.20;99.90;;;;;;6254397;22;20152;-81
2022/02/08 00:12:45;;;;;;;5.40;3.13;;;-0.30;99.90;;;;;;6281707;22;20145;-81
2022/02/08 00:15:11;;;;;;;8.00;3.67;;;-0.20;99.90;;;;;;6281340;22;20220;-81
2022/02/08 00:17:37;;;;;;;6.57;3.57;;;-0.10;99.90;;;;;;6281056;22;20175;-81
2022/02/08 00:20:06;;;;;;;5.23;3.50;;;-0.20;99.90;;;;;;6281758;22;20175;-83
2022/02/08 00:22:32;;;;;;;6.53;3.60;;;-0.20;99.90;;;;;;6254691;22;20164;-83
2022/02/08 00:24:58;;;;;;;6.37;3.23;;;-0.30;99.90;;;;;;6283062;22;20179;-81
2022/02/08 00:27:24;;;;;;;5.37;3.40;;;-0.10;99.90;;;;;;6281441;22;20597;-82
2022/02/08 00:29:52;;;;;;;7.43;3.30;;;-0.30;99.90;;;;;;6281487;22;20631;-81
2022/02/08 00:32:18;;;;;;;4.73;3.27;;;-0.30;99.90;;;;;;6281649;22;20180;-85
2022/02/08 00:34:53;;;;;;;5.63;3.20;;;-0.30;99.90;;;;;;6281318;22;20148;-82
2022/02/08 00:37:19;;;;;;;7.20;3.77;;;-0.30;99.90;;;;;;6280907;22;20139;-82
2022/02/08 00:39:44;;;;;;;6.80;3.23;;;-0.30;99.90;;;;;;6280745;22;20164;-82
2022/02/08 00:42:11;;;;;;;7.97;3.90;;;-0.20;99.90;;;;;;6279874;22;20154;-82
2022/02/08 00:47:20;;;;;;;10.30;4.70;;;-0.20;99.90;;;;;;6291084;22;20169;-82
2022/02/08 00:49:47;;;;;;;7.30;5.17;;;-0.10;99.90;;;;;;6280131;22;20616;-82
2022/02/08 00:52:16;;;;;;;10.37;4.90;;;-0.10;99.90;;;;;;6280688;22;20158;-83
2022/02/08 00:54:51;;;;;;;7.77;4.47;;;-0.10;99.90;;;;;;6280784;22;20140;-81
2022/02/08 00:57:17;;;;;;;12.27;4.53;;;-0.10;99.90;;;;;;6280695;22;20151;-82
2022/02/08 00:59:43;;;;;;;8.63;4.90;;;-0.10;99.90;;;;;;6281021;22;20507;-81
2022/02/08 01:02:10;;;;;;;7.33;5.13;;;0.00;99.90;;;;;;6279977;22;20144;-81
2022/02/08 01:04:36;;;;;;;10.17;5.70;;;0.00;99.90;;;;;;6280255;22;20148;-81
2022/02/08 01:07:04;;;;;;;11.03;5.70;;;0.00;99.90;;;;;;6279936;22;20179;-82
2022/02/08 01:12:08;;;;;;;12.07;5.40;;;0.10;99.90;;;;;;6290756;22;20135;-82
2022/02/08 01:14:38;;;;;;;6.57;4.10;;;0.10;99.90;;;;;;6252807;22;20240;-82
2022/02/08 01:17:06;;;;;;;6.90;4.57;;;0.10;99.90;;;;;;6279961;22;20477;-82
2022/02/08 01:19:33;;;;;;;8.07;4.17;;;0.10;99.90;;;;;;6280174;22;20164;-81
2022/02/08 01:21:58;;;;;;;10.53;4.47;;;0.10;99.90;;;;;;6279922;22;20155;-82
2022/02/08 01:24:24;;;;;;;8.27;4.13;;;0.50;99.90;;;;;;6280388;22;20548;-82
2022/02/08 01:27:04;;;;;;;7.47;4.03;;;0.20;99.90;;;;;;6279828;22;20636;-82
2022/02/08 01:43:08;;;;;;;6.73;3.93;;;0.30;99.90;;;;;;6233327;22;20180;-83
2022/02/08 01:48:10;;;;;;;9.77;3.70;;;0.30;99.90;;;;;;6281309;22;20180;-80
2022/02/08 01:50:39;;;;;;;7.37;3.60;;;0.40;99.90;;;;;;6254508;22;20499;-81
2022/02/08 01:53:05;;;;;;;6.13;3.83;;;0.40;99.90;;;;;;6253015;22;20231;-82
2022/02/08 01:55:33;;;;;;;5.13;3.67;;;0.50;99.90;;;;;;6280982;22;20194;-81
2022/02/08 01:57:59;;;;;;;11.23;4.33;;;0.70;99.90;;;;;;6280606;22;20238;-81
2022/02/08 02:00:27;;;;;;;9.27;3.93;;;0.40;99.90;;;;;;6279773;22;20151;-81
2022/02/08 02:02:53;;;;;;;8.37;3.70;;;0.40;99.90;;;;;;6253006;22;20157;-82
2022/02/08 02:05:18;;;;;;;11.53;4.70;;;0.30;99.90;;;;;;6280304;22;20149;-80
2022/02/08 02:07:49;;;;;;;7.53;3.90;;;0.40;99.90;;;;;;6251884;22;20188;-81
2022/02/08 02:10:16;;;;;;;11.63;4.70;;;0.30;99.90;;;;;;6280200;22;20191;-82
2022/02/08 02:12:56;;;;;;;6.13;3.90;;;0.40;99.90;;;;;;6252755;22;20156;-82
2022/02/08 02:15:22;;;;;;;6.03;4.10;;;0.30;99.90;;;;;;6279119;22;20629;-81
2022/02/08 02:17:48;;;;;;;6.73;3.67;;;0.20;99.90;;;;;;6252809;22;20230;-81
2022/02/08 02:20:14;;;;;;;5.20;3.43;;;0.20;99.90;;;;;;6279745;22;20545;-81
2022/02/08 02:22:40;;;;;;;5.33;4.20;;;0.10;99.90;;;;;;6280069;22;20176;-81
2022/02/08 02:25:06;;;;;;;9.10;4.50;;;0.10;99.90;;;;;;6280040;22;20167;-83
2022/02/08 02:27:32;;;;;;;8.63;4.70;;;0.10;99.90;;;;;;6252816;22;20230;-82
2022/02/08 02:29:58;;;;;;;9.13;4.67;;;0.10;99.90;;;;;;6279203;22;20148;-81
2022/02/08 02:32:23;;;;;;;8.03;4.07;;;0.10;99.90;;;;;;6280862;22;20145;-84
2022/02/08 02:34:50;;;;;;;5.87;4.13;;;0.10;99.90;;;;;;6256831;22;20156;-80
2022/02/08 02:37:17;;;;;;;8.37;3.77;;;0.20;99.90;;;;;;6277026;22;20152;-81
2022/02/08 02:39:43;;;;;;;7.00;3.80;;;0.10;99.90;;;;;;6249559;22;20175;-81
2022/02/08 02:42:10;;;;;;;5.83;3.60;;;0.10;99.90;;;;;;6278792;22;20151;-82
2022/02/08 02:44:36;;;;;;;5.90;3.77;;;0.20;99.90;;;;;;6279443;22;20159;-81
2022/02/08 02:47:02;;;;;;;6.93;3.43;;;0.20;99.90;;;;;;6281013;22;20204;-81
2022/02/08 02:49:28;;;;;;;8.70;3.60;;;0.20;99.90;;;;;;6250727;22;20179;-81
2022/02/08 02:51:53;;;;;;;6.23;3.60;;;0.30;99.90;;;;;;6252019;22;20144;-81
2022/02/08 02:54:19;;;;;;;6.37;3.30;;;0.30;99.90;;;;;;6279133;22;20141;-82
2022/02/08 02:56:47;;;;;;;5.13;3.37;;;0.20;99.90;;;;;;6279439;22;20179;-82
2022/02/08 02:59:22;;;;;;;5.80;3.20;;;0.20;99.90;;;;;;6281570;22;20176;-82
2022/02/08 03:20:30;;;;;;;4.03;2.40;;;0.50;99.90;;;;;;6252928;22;20459;-84
2022/02/08 03:22:56;;;;;;;4.93;2.20;;;0.60;99.90;;;;;;6278517;22;20149;-82
2022/02/08 03:25:22;;;;;;;5.73;2.50;;;0.60;99.90;;;;;;6251238;22;20179;-82
2022/02/08 03:27:48;;;;;;;4.83;2.57;;;0.80;99.90;;;;;;6278963;22;20637;-82
2022/02/08 03:30:13;;;;;;;6.73;2.73;;;0.60;99.90;;;;;;6252002;22;20208;-82
2022/02/08 03:32:39;;;;;;;6.93;2.70;;;0.60;99.90;;;;;;6279446;22;20145;-82
2022/02/08 03:35:06;;;;;;;8.27;2.87;;;0.60;99.90;;;;;;6279213;22;20239;-82
2022/02/08 03:37:33;;;;;;;7.43;2.93;;;0.50;99.90;;;;;;6279388;22;20152;-82
2022/02/08 03:40:06;;;;;;;7.13;2.70;;;0.50;99.90;;;;;;6251960;22;20169;-81
2022/02/08 03:42:39;;;;;;;3.87;2.83;;;0.50;99.90;;;;;;6279467;22;20512;-81
2022/02/08 03:45:09;;;;;;;7.77;3.20;;;0.60;99.90;;;;;;6278846;22;20129;-82
2022/02/08 03:47:36;;;;;;;7.80;3.40;;;0.40;99.90;;;;;;6278642;22;20686;-82
2022/02/08 03:50:04;;;;;;;7.70;3.20;;;0.40;99.90;;;;;;6252872;22;20156;-82
2022/02/08 03:52:30;;;;;;;5.63;3.57;;;0.30;99.90;;;;;;6253441;22;20492;-82
2022/02/08 03:54:56;;;;;;;6.57;2.77;;;0.70;99.90;;;;;;6253595;22;20149;-81
2022/02/08 03:57:24;;;;;;;5.23;2.70;;;0.20;99.90;;;;;;6280834;22;20167;-81
2022/02/08 03:59:50;;;;;;;7.87;3.57;;;0.10;99.90;;;;;;6280613;22;20202;-82
2022/02/08 04:05:03;;;;;;;6.73;3.20;;;0.10;99.90;;;;;;6291770;22;20137;-82
2022/02/08 04:07:43;;;;;;;5.03;3.17;;;0.20;99.90;;;;;;6253127;22;20622;-82
2022/02/08 04:10:13;;;;;;;7.00;3.13;;;0.10;99.90;;;;;;6280910;22;20227;-82
2022/02/08 04:15:29;;;;;;;4.53;2.53;;;0.20;99.90;;;;;;6280003;22;20179;-80
2022/02/08 04:18:33;;;;;;;6.13;2.97;;;0.20;99.90;;;;;;6252122;22;20621;-82
2022/02/08 04:45:07;;;;;;;5.37;2.57;;;0.00;99.90;;;;;;6277645;22;20152;-83
2022/02/08 04:48:23;;;;;;;8.43;3.00;;;-0.10;99.90;;;;;;6278604;22;20164;-82
2022/02/08 04:50:23;;;;;;;4.67;2.60;;;-0.20;99.90;;;;;;6274533;22;20149;-83
2022/02/08 04:53:03;;;;;;;7.60;2.87;;;0.40;99.90;;;;;;6251359;22;20156;-81
2022/02/08 04:55:40;;;;;;;5.87;2.87;;;-0.30;99.90;;;;;;6278206;22;20151;-82
2022/02/08 04:58:17;;;;;;;4.10;2.63;;;-0.30;99.90;;;;;;6251038;22;20176;-81
2022/02/08 05:44:27;;;;;;;7.27;3.50;;;0.80;99.90;;;;;;6280759;22;20155;-82
2022/02/08 05:46:54;;;;;;;9.93;3.73;;;0.40;99.90;;;;;;6252780;22;20192;-81
2022/02/08 05:49:29;;;;;;;11.10;3.40;;;0.50;99.90;;;;;;6252091;22;20202;-81
2022/02/08 05:51:58;;;;;;;7.37;3.27;;;0.60;99.90;;;;;;6279657;22;20212;-82
2022/02/08 05:54:24;;;;;;;10.73;3.30;;;0.70;99.90;;;;;;6252341;22;20153;-82
2022/02/08 05:56:54;;;;;;;8.93;3.10;;;0.70;99.90;;;;;;6281276;22;20250;-82
2022/02/08 05:59:21;;;;;;;5.27;3.10;;;0.80;99.90;;;;;;6279049;22;20171;-82
2022/02/08 06:01:47;;;;;;;7.60;2.80;;;0.80;99.90;;;;;;6279371;22;20207;-82
2022/02/08 06:04:13;;;;;;;9.20;5.37;;;0.80;99.90;;;;;;6279471;22;20149;-81
2022/02/08 06:06:39;;;;;;;9.47;3.23;;;0.80;99.90;;;;;;6252508;22;20633;-81
2022/02/08 06:09:04;;;;;;;7.80;4.13;;;0.80;99.90;;;;;;6279726;22;20215;-81
2022/02/08 06:11:34;;;;;;;7.37;4.20;;;0.80;99.90;;;;;;6280555;22;20156;-81
2022/02/08 06:14:00;;;;;;;11.03;3.87;;;0.80;99.90;;;;;;6252233;22;20294;-81
2022/02/08 06:16:25;;;;;;;10.03;3.60;;;0.80;99.90;;;;;;6278951;22;20148;-81
2022/02/08 06:18:51;;;;;;;12.00;3.93;;;0.90;99.90;;;;;;6279635;22;20247;-81
2022/02/08 06:21:17;;;;;;;6.10;3.23;;;0.90;99.90;;;;;;6278323;22;20144;-82
2022/02/08 06:23:43;;;;;;;9.20;4.17;;;0.90;99.90;;;;;;6278053;22;20231;-82
2022/02/08 06:26:11;;;;;;;4.23;2.37;;;1.10;99.90;;;;;;6278942;22;20177;-81
2022/02/08 06:28:36;;;;;;;8.07;3.27;;;0.90;99.90;;;;;;6279722;22;20169;-81
2022/02/08 06:31:02;;;;;;;8.13;3.03;;;1.00;99.90;;;;;;6279622;22;20160;-80
2022/02/08 06:33:28;;;;;;;6.47;2.87;;;1.00;99.90;;;;;;6278278;22;20210;-80
2022/02/08 06:35:53;;;;;;;6.60;3.10;;;1.00;99.90;;;;;;6278184;22;20196;-81
2022/02/08 06:38:20;;;;;;;12.90;2.93;;;1.00;99.90;;;;;;6250330;22;20263;-80
2022/02/08 06:40:49;;;;;;;7.23;3.17;;;1.00;99.90;;;;;;6279596;22;20156;-81
2022/02/08 06:43:16;;;;;;;8.07;3.17;;;1.00;99.90;;;;;;6252503;22;20154;-81
2022/02/08 06:45:42;;;;;;;7.23;3.50;;;1.00;99.90;;;;;;6278828;22;20144;-82
2022/02/08 06:48:09;;;;;;;11.37;3.03;;;1.00;99.90;;;;;;6250630;22;20545;-80
2022/02/08 06:50:35;;;;;;;7.40;2.80;;;1.10;99.90;;;;;;6276818;22;20144;-81
2022/02/08 06:53:00;;;;;;;7.53;3.57;;;1.10;99.90;;;;;;6251711;22;20156;-82
2022/02/08 06:55:28;;;;;;;10.43;3.60;;;1.30;99.90;;;;;;6250256;22;20180;-84
2022/02/08 07:00:38;;;;;;;7.07;3.57;;;1.60;99.90;;;;;;6288376;22;20246;-83
2022/02/08 07:03:06;;;;;;;5.93;3.17;;;1.20;99.90;;;;;;6279711;22;20129;-82
2022/02/08 07:05:32;;;;;;;7.50;2.97;;;1.20;99.90;;;;;;6252840;22;20185;-82
2022/02/08 07:07:58;;;;;;;5.93;3.07;;;1.70;99.90;;;;;;6279679;22;20176;-82
2022/02/08 07:10:26;;;;;;;6.93;3.17;;;1.40;99.90;;;;;;6280275;22;20492;-82
2022/02/08 07:12:52;;;;;;;7.27;2.80;;;2.00;99.90;;;;;;6279473;22;20149;-81
2022/02/08 07:15:19;;;;;;;5.20;2.97;;;1.60;99.90;;;;;;6252100;22;20152;-82
2022/02/08 07:17:44;;;;;;;6.70;2.50;;;1.60;99.90;;;;;;6251651;22;20196;-81
2022/02/08 07:20:11;;;;;;;6.20;2.50;;;1.60;99.90;;;;;;6279143;22;20151;-84
2022/02/08 07:22:37;;;;;;;12.33;3.10;;;1.60;99.90;;;;;;6278615;22;20239;-81
2022/02/08 07:25:04;;;;;;;5.17;2.83;;;1.60;99.90;;;;;;6252708;22;20159;-82
2022/02/08 07:27:30;;;;;;;5.20;3.80;;;1.60;99.90;;;;;;6254092;22;20184;-83
2022/02/08 07:29:56;;;;;;;6.60;2.80;;;1.90;99.90;;;;;;6276424;22;20176;-84
2022/02/08 07:32:37;;;;;;;4.43;2.83;;;1.80;99.90;;;;;;6252694;22;20148;-82
2022/02/08 07:35:33;;;;;;;4.50;2.30;;;1.80;99.90;;;;;;6280134;22;20129;-82
2022/02/08 07:38:09;;;;;;;6.07;2.40;;;1.90;99.90;;;;;;6280038;22;20185;-82
2022/02/08 07:43:05;;;;;;;3.50;2.30;;;1.90;99.90;;;;;;6285360;22;20593;-82
2022/02/08 07:45:30;;;;;;;6.70;3.23;;;1.90;99.90;;;;;;6282205;22;20170;-82
2022/02/08 07:47:56;;;;;;;3.77;2.50;;;1.90;99.90;;;;;;6251451;22;20185;-81
2022/02/08 07:50:23;;;;;;;3.70;2.17;;;1.90;99.90;;;;;;6258769;22;20149;-82
2022/02/08 07:52:53;;;;;;;4.67;2.10;;;1.90;99.90;;;;;;6288866;22;20225;-83
2022/02/08 07:55:21;;;;;;;5.10;2.40;;;2.00;99.90;;;;;;6258176;22;20153;-82
2022/02/08 07:57:47;;;;;;;4.10;2.17;;;2.30;99.90;;;;;;6255142;22;20179;-81
2022/02/08 08:00:13;;;;;;;3.63;2.40;;;2.00;99.90;;;;;;6281195;22;20299;-81
2022/02/08 08:02:39;;;;;;;4.07;2.10;;;2.00;99.90;;;;;;6251782;22;20206;-82
2022/02/08 08:05:06;;;;;;;4.60;2.10;;;2.00;99.90;;;;;;6280047;22;20179;-84
2022/02/08 08:07:32;;;;;;;6.60;2.43;;;1.90;99.90;;;;;;6253669;22;20168;-82
2022/02/08 08:10:01;;;;;;;4.10;2.23;;;2.00;99.90;;;;;;6254092;22;20159;-82
2022/02/08 08:12:27;;;;;;;4.87;2.20;;;2.10;99.90;;;;;;6280899;22;20151;-82
2022/02/08 08:14:53;;;;;;;4.07;2.33;;;2.20;99.90;;;;;;6281586;22;20489;-80
2022/02/08 08:19:54;;;;;;;3.13;1.70;;;2.30;99.90;;;;;;6290573;22;20164;-81
2022/02/08 08:22:20;;;;;;;3.43;1.70;;;2.40;99.90;;;;;;6280224;22;20224;-81
2022/02/08 08:24:47;;;;;;;3.20;1.90;;;2.20;99.90;;;;;;6281062;22;20173;-80
2022/02/08 08:27:14;;;;;;;4.60;2.10;;;2.20;99.90;;;;;;6279288;22;20251;-82
2022/02/08 08:29:40;;;;;;;3.70;1.90;;;2.20;99.90;;;;;;6277132;22;20165;-83
2022/02/08 08:32:07;;;;;;;4.30;2.13;;;2.30;99.90;;;;;;6281657;22;20483;-81
2022/02/08 08:34:34;;;;;;;3.63;1.67;;;2.40;99.90;;;;;;6287077;22;20156;-82
2022/02/08 08:37:01;;;;;;;5.00;2.10;;;2.50;99.90;;;;;;6254031;22;20154;-85
2022/02/08 08:39:34;;;;;;;6.97;1.77;;;2.50;99.90;;;;;;6281062;22;20192;-82
2022/02/08 08:49:57;;;;;;;4.13;1.83;;;2.60;99.90;;;;;;6280471;22;20139;-81
2022/02/08 08:52:31;;;;;;;4.60;2.57;;;2.60;99.90;;;;;;6280167;22;20653;-82
2022/02/08 08:54:58;;;;;;;5.57;1.83;;;2.60;99.90;;;;;;6278713;22;20219;-81
2022/02/08 08:57:25;;;;;;;3.77;1.80;;;2.60;99.90;;;;;;6281676;22;20149;-82
2022/02/08 08:59:51;;;;;;;5.67;1.93;;;2.60;99.90;;;;;;6252547;22;20926;-81
2022/02/08 09:02:16;;;;;;;2.87;1.40;;;3.10;99.90;;;;;;6280405;22;20149;-81
2022/02/08 09:04:44;;;;;;;4.70;1.73;;;2.90;99.90;;;;;;6280395;22;20152;-81
2022/02/08 09:07:10;;;;;;;3.23;1.53;;;2.80;99.90;;;;;;6256346;22;20190;-81
2022/02/08 09:09:40;;;;;;;2.73;1.70;;;2.80;99.90;;;;;;6256164;22;20553;-80
2022/02/08 09:12:18;;;;;;;6.40;2.33;;;2.90;99.90;;;;;;6280691;22;20138;-80
2022/02/08 09:22:48;;;;;;;3.23;1.50;;;3.10;99.90;;;;;;6290066;22;20168;-80
2022/02/08 09:31:02;;;;;;;3.80;1.90;;;3.30;99.90;;;;;;6215772;23;20150;-81
2022/02/08 09:33:28;;;;;;;3.63;2.17;;;3.30;99.90;;;;;;6267333;22;20150;-81
2022/02/08 09:35:55;;;;;;;8.57;2.17;;;3.30;99.90;;;;;;6251583;22;20155;-80
2022/02/08 09:38:22;;;;;;;3.03;1.87;;;3.30;99.90;;;;;;6251140;22;20645;-82
2022/02/08 09:40:51;;;;;;;4.57;2.33;;;3.30;99.90;;;;;;6278831;22;20139;-82
2022/02/08 09:43:18;;;;;;;7.43;1.90;;;3.50;99.90;;;;;;6252517;22;20149;-81
2022/02/08 09:45:49;;;;;;;4.20;2.50;;;3.40;99.90;;;;;;6279239;22;20168;-82
2022/02/08 09:51:14;;;;;;;6.73;2.33;;;3.50;99.90;;;;;;6254991;22;20189;-82
2022/02/08 09:53:43;;;;;;;9.20;3.47;;;3.50;99.90;;;;;;6278962;22;20196;-81
2022/02/08 09:56:12;;;;;;;5.53;2.67;;;3.50;99.90;;;;;;6252282;22;20154;-82
2022/02/08 09:58:41;;;;;;;4.43;2.30;;;3.50;99.90;;;;;;6279839;22;20167;-81
2022/02/08 10:01:13;;;;;;;8.27;2.17;;;3.70;99.90;;;;;;6279372;22;20159;-81
2022/02/08 10:03:52;;;;;;;5.67;2.27;;;3.70;99.90;;;;;;6251131;22;20614;-82
2022/02/08 10:06:18;;;;;;;2.90;1.60;;;3.70;99.90;;;;;;6264571;22;20174;-81
2022/02/08 10:08:44;;;;;;;4.93;2.20;;;3.80;99.90;;;;;;6295982;22;20173;-82
2022/02/08 10:11:22;;;;;;;5.87;2.00;;;3.80;99.90;;;;;;6293646;22;20162;-82
2022/02/08 10:14:19;;;;;;;4.40;2.43;;;3.90;99.90;;;;;;6281020;22;20131;-83
2022/02/08 10:20:29;;;;;;;4.47;1.93;;;4.10;99.90;;;;;;6278951;22;20473;-84
2022/02/08 10:22:40;;;;;;;9.47;4.07;;;4.20;99.90;;;;;;6278573;22;20160;-82
2022/02/08 10:25:08;;;;;;;4.23;1.93;;;4.30;99.90;;;;;;6278333;22;20150;-82
2022/02/08 10:27:42;;;;;;;4.17;1.30;;;4.40;99.90;;;;;;6279139;22;20169;-82
2022/02/08 10:38:51;;;;;;;3.63;1.70;;;4.80;99.90;;;;;;6273015;22;20535;-81
2022/02/08 10:41:21;;;;;;;6.97;1.83;;;4.90;99.90;;;;;;6251799;22;20150;-82
2022/02/08 10:44:06;;;;;;;4.70;1.70;;;5.00;99.90;;;;;;6279934;22;20584;-81
2022/02/08 10:46:33;;;;;;;2.80;1.50;;;5.10;99.90;;;;;;6279442;22;20171;-81
2022/02/08 10:49:01;;;;;;;6.17;1.67;;;5.30;99.90;;;;;;6278947;22;20177;-82
2022/02/08 10:51:26;;;;;;;3.10;1.50;;;5.50;99.90;;;;;;6252554;22;20152;-83
2022/02/08 10:54:01;;;;;;;3.73;1.37;;;5.60;99.90;;;;;;6252470;22;20216;-83
2022/02/08 10:56:31;;;;;;;4.87;1.70;;;5.80;99.90;;;;;;6279666;22;20709;-83
2022/02/08 11:00:03;;;;;;;7.63;1.60;;;5.90;99.90;;;;;;6280946;22;20259;-83
2022/02/08 11:02:09;;;;;;;4.57;1.80;;;6.10;99.90;;;;;;6261900;22;20159;-83
2022/02/08 11:04:51;;;;;;;4.27;1.67;;;;;;;;;;6279807;22;20447;-84
2022/02/08 11:13:15;;;;;;;2.23;1.20;;;6.40;99.90;;;;;;6280290;22;20140;-82
2022/02/08 11:15:50;;;;;;;3.23;1.37;;;6.60;99.90;;;;;;6233534;22;20549;-83
2022/02/08 11:18:37;;;;;;;7.83;1.73;;;;;;;;;;6281201;22;20642;-82
2022/02/08 11:21:06;;;;;;;3.97;1.50;;;;;;;;;;6254063;22;20151;-82
2022/02/08 11:23:48;;;;;;;3.67;1.40;;;;;;;;;;6254327;22;20159;-82
2022/02/08 11:26:35;;;;;;;2.87;1.40;;;;;;;;;;6281813;22;20133;-83
2022/02/08 11:29:18;;;;;;;4.00;1.40;;;;;;;;;;6280115;22;20164;-82
2022/02/08 11:31:50;;;;;;;4.93;1.70;;;;;;;;;;6280615;22;20167;-82
2022/02/08 11:46:23;;;;;;;3.53;1.60;;;;;;;;;;6294637;22;20136;-82
2022/02/08 11:54:28;;;;;;;7.53;1.20;;;;;;;;;;6295942;22;20136;-82
2022/02/08 11:57:37;;;;;;;2.23;1.13;;;;;;;;;;6282973;22;20534;-81
2022/02/08 12:00:08;;;;;;;2.63;1.03;;;;;;;;;;6281795;22;20157;-83
2022/02/08 12:05:20;;;;;;;3.00;1.10;;;;;;;;;;6281482;22;20157;-82
2022/02/08 12:07:48;;;;;;;3.60;1.20;;;;;;;;;;6280955;22;20518;-82
2022/02/08 12:10:27;;;;;;;2.60;1.03;;;;;;;;;;6280183;22;20150;-83
2022/02/08 12:49:48;;;;;;;1.93;0.90;;;;;;;;;;6279261;22;20482;-82
2022/02/08 12:52:44;;;;;;;1.43;0.97;;;;;;;;;;6280720;22;20236;-82
2022/02/08 12:57:36;;;;;;;4.63;2.13;;;;;;;;;;6280744;22;20176;-82
2022/02/08 13:32:17;;;;;;;1.87;0.90;;;;;;;;;;6280092;22;20645;-82
2022/02/08 14:19:16;;;;;;;1.87;0.80;;;;;;;;;;6249995;23;20546;-82
2022/02/08 14:29:57;;;;;;;1.40;0.80;;;;;;;;;;6249760;23;20482;-82
2022/02/08 14:32:40;;;;;;;2.43;1.03;;;;;;;;;;6249793;23;20602;-82
2022/02/08 15:00:12;;;;;;;2.87;1.10;;;;;;;;;;6248754;23;20169;-80
2022/02/08 15:05:39;;;;;;;3.17;1.23;;;;;;;;;;6248440;23;20167;-82
2022/02/08 15:08:13;;;;;;;3.13;1.10;;;;;;;;;;6248413;23;20183;-82
2022/02/08 15:13:05;;;;;;;1.33;0.80;;;;;;;;;;6251110;23;20150;-82
2022/02/08 15:18:16;;;;;;;3.53;1.20;;;;;;;;;;6250079;23;20146;-81
2022/02/08 15:20:42;;;;;;;3.63;1.00;;;;;;;;;;6248507;23;20147;-81
2022/02/08 15:23:11;;;;;;;3.07;1.00;;;;;;;;;;6248740;23;20149;-82
2022/02/08 15:25:37;;;;;;;2.03;1.00;;;;;;;;;;6249265;23;20231;-82
2022/02/08 15:28:04;;;;;;;2.03;1.00;;;;;;;;;;6249541;22;20181;-81
2022/02/08 15:30:35;;;;;;;1.87;0.80;;;;;;;;;;6250308;23;20203;-81
2022/02/08 15:33:05;;;;;;;1.47;0.80;;;;;;;;;;6223582;23;20566;-82
2022/02/08 15:35:31;;;;;;;1.57;1.07;;;;;;;;;;6249080;23;20126;-82
2022/02/08 15:37:57;;;;;;;1.83;1.17;;;;;;;;;;6248396;23;20181;-82
2022/02/08 15:40:24;;;;;;;3.07;1.10;;;;;;;;;;6247927;23;20233;-81
2022/02/08 15:42:50;;;;;;;1.33;1.07;;;;;;;;;;6248291;23;20595;-82
2022/02/08 15:45:44;;;;;;;1.70;0.93;;;;;;;;;;6248318;23;20153;-82
2022/02/08 15:48:07;;;;;;;2.27;1.20;;;;;;;;;;6249134;23;20193;-82
2022/02/08 15:55:52;;;;;;;3.00;1.30;;;;;;;;;;6224032;23;20494;-81
2022/02/08 16:00:09;;;;;;;4.10;1.30;;;;;;;;;;6251170;23;20138;-82
2022/02/08 16:01:08;;;;;;;2.13;0.93;;;;;;;;;;6249969;23;20165;-82
2022/02/08 16:08:50;;;;;;;3.83;1.63;;;;;;;;;;6249113;23;20232;-82
2022/02/08 16:19:15;;;;;;;4.23;2.70;;;;;;;;;;6250970;23;20191;-82
2022/02/08 16:29:12;;;;;;;4.37;2.10;;;;;;;;;;6260930;23;20148;-81
2022/02/08 16:53:41;;;;;;;4.73;1.50;;;;;;;;;;6257475;23;20218;-81
2022/02/08 16:56:38;;;;;;;4.30;1.80;;;;;;;;;;6246873;23;20448;-82
2022/02/08 16:59:04;;;;;;;4.13;1.30;;;;;;;;;;6222043;23;20141;-81
2022/02/08 17:01:35;;;;;;;4.43;1.50;;;;;;;;;;6249157;23;20145;-82
2022/02/08 17:04:05;;;;;;;5.77;1.87;;;;;;;;;;6248836;23;20133;-81
2022/02/08 17:06:31;;;;;;;3.83;1.70;;;;;;;;;;6221048;23;20184;-80
2022/02/08 17:09:07;;;;;;;6.57;2.10;;;;;;;;;;6251309;23;20161;-81
2022/02/08 17:11:40;;;;;;;4.77;1.90;;;;;;;;;;6261744;23;20154;-81
2022/02/08 17:14:25;;;;;;;5.73;1.77;;;;;;;;;;6257628;23;20522;-81
2022/02/08 17:17:18;;;;;;;10.40;1.97;;;;;;;;;;6223834;23;20176;-82
2022/02/08 17:34:33;;;;;;;3.97;2.07;;;;;;;;;;6249149;23;20157;-82
2022/02/08 17:47:33;;;;;;;7.53;2.50;;;;;;;;;;6248375;23;20184;-82
2022/02/08 17:49:59;;;;;;;4.67;1.90;;;;;;;;;;6248476;23;20129;-82
2022/02/08 17:52:26;;;;;;;6.57;2.80;;;;;;;;;;6248779;23;20156;-82
2022/02/08 17:54:52;;;;;;;6.13;2.57;;;;;;;;;;6247930;23;20578;-82
2022/02/08 17:57:18;;;;;;;8.00;2.40;;;;;;;;;;6249201;23;20175;-82
2022/02/08 17:59:45;;;;;;;6.97;2.10;;;;;;;;;;6250227;23;20153;-81
2022/02/08 18:02:11;;;;;;;8.43;2.53;;;;;;;;;;6249135;23;20149;-81
2022/02/08 18:04:37;;;;;;;3.90;2.13;;;;;;;;;;6221085;23;20183;-82
2022/02/08 18:07:05;;;;;;;8.47;2.90;;;;;;;;;;6220750;23;20182;-82
2022/02/08 18:09:31;;;;;;;7.20;3.50;;;;;;;;;;6248668;23;20144;-81
2022/02/08 18:12:00;;;;;;;11.60;3.27;;;;;;;;;;6247440;23;20911;-81
2022/02/08 18:14:28;;;;;;;6.03;3.00;;;;;;;;;;6247628;23;20162;-81
2022/02/08 18:19:57;;;;;;;7.27;2.43;;;;;;;;;;6240677;23;20160;-81
2022/02/08 18:22:33;;;;;;;6.47;1.87;;;4.10;99.90;;;;;;6247874;23;20194;-82
2022/02/08 18:25:25;;;;;;;6.37;1.70;;;4.20;99.90;;;;;;6247931;23;20144;-82
2022/02/08 18:55:28;;;;;;;7.33;1.93;;;3.50;99.90;;;;;;6280149;22;20188;-81
2022/02/08 19:23:55;;;;;;;8.90;2.60;;;3.00;99.90;;;;;;6281911;22;20172;-81
2022/02/08 19:26:23;;;;;;;5.40;3.70;;;3.00;99.90;;;;;;6280393;22;20152;-82
2022/02/08 19:28:51;;;;;;;5.27;2.60;;;3.00;99.90;;;;;;6282400;22;20155;-81
2022/02/08 19:31:19;;;;;;;8.03;4.23;;;3.00;99.90;;;;;;6254965;22;20183;-83
2022/02/08 19:33:54;;;;;;;12.20;6.00;;;3.00;99.90;;;;;;6250227;23;20154;-83
2022/02/08 19:36:20;;;;;;;10.30;4.30;;;3.50;99.90;;;;;;6223997;23;20175;-81
2022/02/08 19:38:48;;;;;;;8.07;5.50;;;3.20;99.90;;;;;;6251416;23;20147;-81
2022/02/08 19:41:20;;;;;;;10.67;5.57;;;3.00;99.90;;;;;;6250405;23;20628;-81
2022/02/08 19:43:48;;;;;;;9.93;6.30;;;3.00;99.90;;;;;;6250326;23;20378;-82
2022/02/08 19:46:15;;;;;;;7.40;3.77;;;3.10;99.90;;;;;;6251273;23;20157;-81
2022/02/08 19:48:41;;;;;;;5.93;3.53;;;2.90;99.90;;;;;;6250469;23;20159;-81
2022/02/08 19:51:07;;;;;;;7.83;4.23;;;2.90;99.90;;;;;;6250979;23;20256;-81
2022/02/08 19:53:34;;;;;;;8.30;4.87;;;2.80;99.90;;;;;;6223595;23;20151;-81
2022/02/08 19:56:24;;;;;;;9.53;5.00;;;2.70;99.90;;;;;;6250792;23;20167;-81
2022/02/08 19:58:53;;;;;;;25.67;6.07;;;2.80;99.90;;;;;;6250775;23;20586;-81
2022/02/08 20:01:29;;;;;;;50.77;7.13;;;2.70;99.90;;;;;;6250329;23;20506;-80
2022/02/08 20:04:04;;;;;;;37.37;9.23;;;2.70;99.90;;;;;;6223551;23;20146;-83
2022/02/08 20:06:30;;;;;;;13.50;7.83;;;2.90;99.90;;;;;;6250273;23;20265;-81
2022/02/08 20:08:56;;;;;;;10.40;7.80;;;2.70;99.90;;;;;;6250555;23;20153;-80
2022/02/08 20:11:22;;;;;;;8.97;6.57;;;2.60;99.90;;;;;;6250730;23;20246;-81
2022/02/08 20:13:56;;;;;;;11.13;6.73;;;2.40;99.90;;;;;;6247962;23;20147;-81
2022/02/08 20:16:23;;;;;;;21.67;6.63;;;2.30;99.90;;;;;;6250795;23;20592;-81
2022/02/08 20:18:52;;;;;;;12.07;5.50;;;2.40;99.90;;;;;;6250096;23;20173;-82
2022/02/08 20:21:19;;;;;;;10.27;5.27;;;2.40;99.90;;;;;;6222596;23;20513;-81
2022/02/08 20:23:44;;;;;;;7.57;5.30;;;2.30;99.90;;;;;;6222654;23;20539;-81
2022/02/08 20:26:10;;;;;;;8.17;5.63;;;2.40;99.90;;;;;;6250350;23;20197;-81
2022/02/08 20:28:47;;;;;;;9.23;5.63;;;2.40;99.90;;;;;;6249865;23;20170;-81
2022/02/08 20:31:14;;;;;;;9.03;6.63;;;2.40;99.90;;;;;;6248907;22;20557;-81
2022/02/08 20:33:40;;;;;;;8.17;6.23;;;2.50;99.90;;;;;;6249989;23;20241;-79
2022/02/08 20:36:06;;;;;;;11.13;6.20;;;2.50;99.90;;;;;;6250148;23;20236;-81
2022/02/08 20:38:32;;;;;;;7.43;6.03;;;2.50;99.90;;;;;;6250667;23;20219;-81
2022/02/08 20:40:58;;;;;;;10.67;5.90;;;2.60;99.90;;;;;;6253668;23;20622;-80
2022/02/08 20:43:24;;;;;;;13.33;6.53;;;2.60;99.90;;;;;;6251788;23;20157;-82
2022/02/08 20:45:51;;;;;;;8.07;5.17;;;2.60;99.90;;;;;;6253597;23;20585;-81
2022/02/08 20:48:23;;;;;;;9.93;5.57;;;2.50;99.90;;;;;;6229619;23;20187;-81
2022/02/08 20:50:51;;;;;;;11.07;4.87;;;2.40;99.90;;;;;;6255043;23;20169;-81
2022/02/08 20:53:32;;;;;;;9.47;4.57;;;2.30;99.90;;;;;;6224597;23;20159;-80
2022/02/08 20:56:09;;;;;;;8.00;4.57;;;2.20;99.90;;;;;;6223023;23;20143;-79
2022/02/08 20:58:50;;;;;;;8.67;4.70;;;2.00;99.90;;;;;;6250143;23;20188;-81
2022/02/08 21:01:16;;;;;;;8.30;4.47;;;1.80;99.90;;;;;;6221333;23;20170;-82
2022/02/08 21:03:53;;;;;;;7.53;4.63;;;1.80;99.90;;;;;;6250484;23;20180;-80
2022/02/08 21:06:21;;;;;;;7.37;4.87;;;1.80;99.90;;;;;;6250677;23;20207;-80
2022/02/08 21:08:49;;;;;;;7.57;4.50;;;1.70;99.90;;;;;;6250633;23;20490;-79
2022/02/08 21:11:15;;;;;;;6.60;5.30;;;1.80;99.90;;;;;;6250622;23;20616;-80
2022/02/08 21:16:08;;;;;;;10.50;5.80;;;1.90;99.90;;;;;;6251324;23;20163;-79
2022/02/08 21:18:34;;;;;;;7.83;5.57;;;2.00;99.90;;;;;;6251261;23;20238;-81
2022/02/08 21:21:01;;;;;;;9.50;5.80;;;2.20;99.90;;;;;;6250618;23;20173;-81